Time;durP1;ratioP1;P1;durP2;ratioP2;P2;SDS_P1;SDS_P2;PMS_P1;PMS_P2;Temp;Humidity;BMP_temperature;BMP_pressure;BME280_temperature;BME280_humidity;BME280_pressure;Samples;Min_cycle;Max_cycle;Signal;HPM_P1;HPM_P2
2020/12/07 00:02:05;;;;;;;41.58;21.20;;;;;;;5.93;100.00;94981.38;5075027;28;20590;-71
2020/12/07 00:04:32;;;;;;;36.20;20.67;;;;;;;5.99;100.00;94979.03;5082045;28;20036;-71
2020/12/07 00:06:59;;;;;;;35.20;21.65;;;;;;;6.01;100.00;94982.19;5073914;28;20441;-71
2020/12/07 00:09:27;;;;;;;33.95;19.90;;;;;;;5.98;100.00;94988.56;5076478;28;20048;-71
2020/12/07 00:11:53;;;;;;;35.15;21.17;;;;;;;5.97;100.00;94986.97;5086170;28;20040;-71
2020/12/07 00:14:19;;;;;;;37.08;21.88;;;;;;;5.92;100.00;94979.78;5088879;28;20401;-71
2020/12/07 00:16:46;;;;;;;39.03;22.02;;;;;;;5.94;100.00;94988.16;5079015;28;20040;-71
2020/12/07 00:19:13;;;;;;;42.45;22.48;;;;;;;5.97;100.00;94986.19;5077931;28;20139;-71
2020/12/07 00:21:43;;;;;;;39.05;23.20;;;;;;;5.94;100.00;94988.16;5077288;28;20032;-70
2020/12/07 00:24:11;;;;;;;36.63;22.30;;;;;;;5.86;100.00;94980.56;5082770;28;20036;-70
2020/12/07 00:26:37;;;;;;;42.20;22.88;;;;;;;5.88;100.00;94978.56;5078888;28;20126;-71
2020/12/07 00:29:04;;;;;;;39.17;21.85;;;;;;;5.89;100.00;94969.84;5089104;28;20058;-70
2020/12/07 00:31:34;;;;;;;42.85;23.02;;;;;;;5.88;100.00;94973.41;5076861;28;20032;-71
2020/12/07 00:34:00;;;;;;;45.50;22.70;;;;;;;5.84;100.00;94969.63;5077683;28;20036;-71
2020/12/07 00:36:28;;;;;;;37.83;20.38;;;;;;;5.86;100.00;94972.81;5079651;28;20050;-70
2020/12/07 00:38:54;;;;;;;41.63;23.63;;;;;;;5.86;100.00;94980.56;5074014;28;20445;-70
2020/12/07 00:41:22;;;;;;;43.55;23.75;;;;;;;5.86;100.00;94970.22;5087333;28;20044;-71
2020/12/07 00:43:49;;;;;;;40.00;21.75;;;;;;;5.83;100.00;94964.66;5076605;28;20045;-70
2020/12/07 00:46:16;;;;;;;42.53;24.65;;;;;;;5.75;100.00;94952.72;5069597;28;20557;-70
2020/12/07 00:48:43;;;;;;;41.63;22.23;;;;;;;5.77;100.00;94940.41;5081776;28;20555;-71
2020/12/07 00:51:10;;;;;;;42.83;24.20;;;;;;;5.72;100.00;94940.97;5069622;28;20575;-71
2020/12/07 00:53:37;;;;;;;48.25;23.83;;;;;;;5.72;100.00;94937.59;5082000;28;20138;-71
2020/12/07 00:56:03;;;;;;;48.00;24.42;;;;;;;5.81;100.00;94954.50;5068088;28;20044;-71
2020/12/07 00:58:30;;;;;;;45.38;24.27;;;;;;;5.73;100.00;94934.03;5081003;28;20064;-71
2020/12/07 01:00:58;;;;;;;41.60;22.77;;;;;;;5.68;100.00;94931.25;5054274;28;20487;-71
2020/12/07 01:03:25;;;;;;;41.40;19.90;;;;;;;5.71;100.00;94930.88;5088113;28;20036;-70
2020/12/07 01:05:53;;;;;;;48.03;24.02;;;;;;;5.72;100.00;94924.69;5084459;28;20047;-71
2020/12/07 01:08:22;;;;;;;49.53;25.50;;;;;;;5.74;100.00;94920.09;5075206;28;20056;-71
2020/12/07 01:10:56;;;;;;;44.88;24.25;;;;;;;5.74;100.00;94935.63;5079415;28;20083;-71
2020/12/07 01:13:24;;;;;;;49.67;25.27;;;;;;;5.73;100.00;94928.88;5071442;28;20143;-70
2020/12/07 01:15:52;;;;;;;50.05;24.85;;;;;;;5.70;100.00;94918.91;5075267;28;20044;-71
2020/12/07 01:18:19;;;;;;;49.92;24.92;;;;;;;5.74;100.00;94926.09;5083397;28;20048;-71
2020/12/07 01:20:46;;;;;;;53.60;25.48;;;;;;;5.74;100.00;94925.28;5079605;28;20041;-71
2020/12/07 01:23:14;;;;;;;48.88;23.13;;;;;;;5.73;100.00;94923.69;5079628;28;20076;-70
2020/12/07 01:25:40;;;;;;;48.80;25.27;;;;;;;5.73;100.00;94924.50;5072332;28;20044;-71
2020/12/07 01:28:07;;;;;;;42.65;22.88;;;;;;;5.70;100.00;94921.50;5088441;28;20122;-71
2020/12/07 01:30:34;;;;;;;49.30;25.48;;;;;;;5.71;100.00;94923.13;5077586;28;20452;-71
2020/12/07 01:33:00;;;;;;;50.83;25.13;;;;;;;5.73;100.00;94918.53;5076879;28;20089;-71
2020/12/07 01:35:28;;;;;;;49.13;24.95;;;;;;;5.73;100.00;94913.38;5072021;28;20109;-71
2020/12/07 01:37:56;;;;;;;48.83;25.08;;;;;;;5.69;100.00;94902.63;5070238;28;20048;-71
2020/12/07 01:40:23;;;;;;;49.20;23.48;;;;;;;5.73;100.00;94903.81;5074761;28;20048;-71
2020/12/07 01:42:49;;;;;;;48.63;24.52;;;;;;;5.70;100.00;94898.25;5068955;28;20521;-71
2020/12/07 01:45:16;;;;;;;48.50;23.98;;;;;;;5.71;100.00;94902.44;5075609;28;20071;-71
2020/12/07 01:47:42;;;;;;;52.03;24.13;;;;;;;5.70;100.00;94900.84;5076773;28;20043;-72
2020/12/07 01:50:13;;;;;;;53.65;26.25;;;;;;;5.72;100.00;94906.59;5075275;28;20041;-71
2020/12/07 01:52:42;;;;;;;46.15;23.17;;;;;;;5.73;100.00;94905.63;5082654;28;20043;-71
2020/12/07 01:55:10;;;;;;;50.88;24.48;;;;;;;5.67;100.00;94888.31;5076552;28;20470;-71
2020/12/07 01:57:52;;;;;;;47.08;24.17;;;;;;;5.71;100.00;94897.28;5079898;28;20113;-71
2020/12/07 02:00:22;;;;;;;46.90;24.00;;;;;;;5.73;100.00;94892.69;5083570;28;20071;-71
2020/12/07 02:03:00;;;;;;;44.80;22.20;;;;;;;5.71;100.00;94884.34;5078994;28;20041;-71
2020/12/07 02:05:27;;;;;;;47.63;22.90;;;;;;;5.71;100.00;94884.34;5082571;28;20144;-71
2020/12/07 02:08:14;;;;;;;42.38;21.67;;;;;;;5.70;100.00;94885.31;5071843;28;20406;-71
2020/12/07 02:10:47;;;;;;;39.88;21.30;;;;;;;5.70;100.00;94888.69;5084146;28;20105;-71
2020/12/07 02:13:17;;;;;;;43.38;21.45;;;;;;;5.70;100.00;94882.75;5073327;28;20127;-71
2020/12/07 02:15:44;;;;;;;43.78;22.27;;;;;;;5.68;100.00;94884.75;5078739;28;20054;-71
2020/12/07 02:18:12;;;;;;;41.72;22.83;;;;;;;5.66;100.00;94891.91;5077871;28;20044;-71
2020/12/07 02:20:45;;;;;;;45.95;23.27;;;;;;;5.69;100.00;94891.47;5065930;28;20056;-71
2020/12/07 02:23:16;;;;;;;48.47;24.23;;;;;;;5.66;100.00;94897.84;5074523;28;20482;-71
2020/12/07 02:25:53;;;;;;;49.75;26.02;;;;;;;5.66;100.00;94897.84;5068562;28;20055;-72
2020/12/07 02:28:22;;;;;;;50.38;26.08;;;;;;;5.64;100.00;94883.56;5079770;28;20048;-71
2020/12/07 02:30:49;;;;;;;50.28;22.60;;;;;;;5.70;100.00;94882.75;5074524;28;20093;-71
2020/12/07 02:33:15;;;;;;;41.97;20.98;;;;;;;5.70;100.00;94893.09;5078243;28;20040;-71
2020/12/07 02:35:42;;;;;;;41.75;22.05;;;;;;;5.57;100.00;94885.34;5072964;28;20444;-71
2020/12/07 02:38:09;;;;;;;48.40;24.20;;;;;;;5.67;100.00;94898.63;5074139;28;20367;-70
2020/12/07 02:40:42;;;;;;;42.55;21.42;;;;;;;5.67;100.00;94901.22;5082995;28;20443;-70
2020/12/07 02:43:08;;;;;;;44.70;22.65;;;;;;;5.68;100.00;94902.81;5084066;28;20077;-71
2020/12/07 02:45:35;;;;;;;41.20;20.98;;;;;;;5.68;100.00;94889.91;5074295;28;20505;-70
2020/12/07 02:48:06;;;;;;;38.10;20.05;;;;;;;5.69;100.00;94891.47;5080839;28;20573;-70
2020/12/07 02:50:35;;;;;;;41.85;21.35;;;;;;;5.64;100.00;94878.38;5076692;28;20056;-70
2020/12/07 02:53:06;;;;;;;40.15;21.17;;;;;;;5.65;100.00;94864.44;5065416;28;20079;-71
2020/12/07 02:55:35;;;;;;;43.58;22.15;;;;;;;5.65;100.00;94864.44;5073201;28;20182;-71
2020/12/07 02:58:01;;;;;;;46.25;24.85;;;;;;;5.66;100.00;94860.88;5065927;28;20052;-71
2020/12/07 03:00:30;;;;;;;43.15;21.60;;;;;;;5.65;100.00;94860.06;5077636;28;20068;-70
2020/12/07 03:02:57;;;;;;;43.08;23.13;;;;;;;5.60;100.00;94859.09;5075470;28;20051;-70
2020/12/07 03:05:28;;;;;;;48.40;24.40;;;;;;;5.65;100.00;94872.19;5076920;28;20135;-70
2020/12/07 03:07:58;;;;;;;42.88;20.58;;;;;;;5.65;100.00;94874.78;5072187;28;20083;-70
2020/12/07 03:10:25;;;;;;;47.47;23.33;;;;;;;5.60;100.00;94866.84;5074943;28;20128;-70
2020/12/07 03:12:54;;;;;;;49.58;23.52;;;;;;;5.64;100.00;94883.56;5074214;28;20036;-70
2020/12/07 03:15:24;;;;;;;45.00;22.73;;;;;;;5.64;100.00;94884.34;5082913;28;20571;-71
2020/12/07 03:17:52;;;;;;;45.15;22.63;;;;;;;5.52;100.00;94876.38;5079314;28;20135;-70
2020/12/07 03:20:24;;;;;;;45.40;23.63;;;;;;;5.62;100.00;94886.34;5074991;28;20040;-70
2020/12/07 03:22:55;;;;;;;45.03;21.77;;;;;;;5.62;100.00;94888.09;5072233;28;20040;-70
2020/12/07 03:25:21;;;;;;;43.17;22.38;;;;;;;5.58;100.00;94879.16;5073239;28;20044;-70
2020/12/07 03:27:48;;;;;;;47.38;23.10;;;;;;;5.60;100.00;94877.97;5066825;28;20063;-70
2020/12/07 03:30:15;;;;;;;46.75;23.48;;;;;;;5.63;100.00;94877.56;5076662;28;20040;-70
2020/12/07 03:32:43;;;;;;;45.58;23.65;;;;;;;5.63;100.00;94877.56;5070961;28;20036;-71
2020/12/07 03:35:09;;;;;;;47.15;21.75;;;;;;;5.64;100.00;94868.03;5075769;28;20044;-70
2020/12/07 03:37:36;;;;;;;46.15;20.92;;;;;;;5.62;100.00;94883.75;5065737;28;20110;-70
2020/12/07 03:40:04;;;;;;;43.78;23.02;;;;;;;5.62;100.00;94885.50;5073848;28;20040;-70
2020/12/07 03:42:39;;;;;;;45.65;23.02;;;;;;;5.62;100.00;94881.16;5075434;28;20063;-71
2020/12/07 03:45:08;;;;;;;42.40;21.75;;;;;;;5.62;100.00;94880.34;5078470;28;20054;-71
2020/12/07 03:47:35;;;;;;;44.00;22.15;;;;;;;5.52;100.00;94871.19;5073829;28;20048;-71
2020/12/07 03:50:03;;;;;;;40.88;21.73;;;;;;;5.58;100.00;94879.16;5069626;28;20048;-71
2020/12/07 03:52:31;;;;;;;48.08;23.25;;;;;;;5.58;100.00;94874.00;5079815;28;20039;-71
2020/12/07 03:55:02;;;;;;;37.88;21.88;;;;;;;5.52;100.00;94871.19;5078498;28;20040;-71
2020/12/07 03:57:28;;;;;;;42.72;23.70;;;;;;;5.49;100.00;94871.63;5070387;28;20059;-71
2020/12/07 03:59:56;;;;;;;45.13;22.45;;;;;;;5.64;100.00;94888.72;5073954;28;20067;-71
2020/12/07 04:02:23;;;;;;;39.63;20.90;;;;;;;5.63;100.00;94892.28;5073447;28;20043;-70
2020/12/07 04:04:55;;;;;;;41.97;20.13;;;;;;;5.48;100.00;94861.47;5074739;28;20049;-70
2020/12/07 04:07:27;;;;;;;37.78;19.50;;;;;;;5.60;100.00;94877.97;5068225;28;20056;-71
2020/12/07 04:09:54;;;;;;;41.80;20.23;;;;;;;5.49;100.00;94871.63;5078816;28;20437;-70
2020/12/07 04:12:21;;;;;;;41.13;19.55;;;;;;;5.62;100.00;94870.00;5077569;28;20175;-70
2020/12/07 04:14:47;;;;;;;43.10;19.83;;;;;;;5.60;100.00;94872.00;5074009;28;20055;-71
2020/12/07 04:17:13;;;;;;;43.60;20.42;;;;;;;5.51;100.00;94851.53;5082303;28;20654;-71
2020/12/07 04:19:40;;;;;;;43.63;20.45;;;;;;;5.63;100.00;94869.81;5086201;28;20028;-71
2020/12/07 04:22:06;;;;;;;36.08;19.27;;;;;;;5.65;100.00;94864.44;5082529;28;20036;-72
2020/12/07 04:24:33;;;;;;;41.08;18.45;;;;;;;5.66;100.00;94866.06;5062105;28;20047;-71
2020/12/07 04:26:59;;;;;;;34.55;16.88;;;;;;;5.66;100.00;94876.38;5085560;28;20036;-71
2020/12/07 04:29:25;;;;;;;37.63;18.92;;;;;;;5.59;100.00;94860.09;5081686;28;20036;-71
2020/12/07 04:31:51;;;;;;;37.90;20.25;;;;;;;5.65;100.00;94877.38;5087035;28;20036;-71
2020/12/07 04:34:18;;;;;;;38.80;20.48;;;;;;;5.64;100.00;94874.00;5074754;28;20393;-71
2020/12/07 04:36:44;;;;;;;32.80;17.95;;;;;;;5.63;100.00;94869.03;5074783;28;20032;-70
2020/12/07 04:39:11;;;;;;;39.15;18.52;;;;;;;5.61;100.00;94876.19;5069384;28;20040;-70
2020/12/07 04:41:41;;;;;;;38.95;19.05;;;;;;;5.49;100.00;94855.31;5075640;28;20032;-70
2020/12/07 04:44:09;;;;;;;34.13;17.38;;;;;;;5.67;100.00;94872.78;5071299;28;20055;-71
2020/12/07 04:46:36;;;;;;;35.42;17.85;;;;;;;5.55;100.00;94850.16;5079382;28;20047;-70
2020/12/07 04:49:03;;;;;;;32.35;16.50;;;;;;;5.69;100.00;94865.63;5086400;28;20037;-70
2020/12/07 04:51:31;;;;;;;32.50;17.65;;;;;;;5.61;100.00;94858.88;5068758;28;20458;-71
2020/12/07 04:54:00;;;;;;;36.28;18.05;;;;;;;5.55;100.00;94849.34;5074148;28;20679;-71
2020/12/07 04:56:27;;;;;;;30.52;16.38;;;;;;;5.59;100.00;94844.59;5075010;28;20044;-70
2020/12/07 04:58:55;;;;;;;33.63;16.92;;;;;;;5.63;100.00;94858.69;5069092;28;20048;-71
2020/12/07 05:01:21;;;;;;;28.75;16.15;;;;;;;5.68;100.00;94864.06;5077743;28;20044;-71
2020/12/07 05:03:48;;;;;;;34.92;16.67;;;;;;;5.69;100.00;94856.13;5082256;28;20040;-70
2020/12/07 05:06:18;;;;;;;33.95;15.45;;;;;;;5.71;100.00;94858.50;5085679;28;20414;-71
2020/12/07 05:08:46;;;;;;;32.20;17.27;;;;;;;5.68;100.00;94848.56;5073124;28;20048;-71
2020/12/07 05:11:13;;;;;;;31.98;16.48;;;;;;;5.64;100.00;94837.03;5071583;28;20403;-71
2020/12/07 05:13:58;;;;;;;25.55;13.43;;;;;;;5.59;100.00;94829.09;5067748;28;20045;-70
2020/12/07 05:16:25;;;;;;;;;;;;;;;5.71;100.00;94855.91;5075379;28;20098;-71
2020/12/07 05:18:51;;;;;;;28.98;16.58;;;;;;;5.64;100.00;94844.78;5071590;28;19928;-71
2020/12/07 05:21:18;;;;;;;27.90;12.85;;;;;;;5.68;100.00;94843.38;5072138;28;20101;-71
2020/12/07 05:23:54;;;;;;;36.78;15.52;;;;;;;5.71;100.00;94846.38;5080693;28;20044;-70
2020/12/07 05:26:21;;;;;;;31.80;15.50;;;;;;;5.65;100.00;94838.63;5076319;28;20079;-70
2020/12/07 05:28:51;;;;;;;34.85;15.07;;;;;;;5.67;100.00;94849.53;5069224;28;20071;-70
2020/12/07 05:31:20;;;;;;;30.40;16.52;;;;;;;5.70;100.00;94851.72;5070267;28;20068;-71
2020/12/07 05:33:47;;;;;;;26.90;16.20;;;;;;;5.64;100.00;94852.53;5076240;28;20028;-70
2020/12/07 05:36:17;;;;;;;25.80;13.93;;;;;;;5.66;100.00;94850.56;5073692;28;20052;-70
2020/12/07 05:38:44;;;;;;;30.55;15.98;;;;;;;5.52;100.00;94835.03;5078041;28;20044;-71
2020/12/07 05:41:15;;;;;;;26.75;13.70;;;;;;;5.62;100.00;94839.00;5078575;28;20041;-71
2020/12/07 05:43:41;;;;;;;29.63;16.65;;;;;;;5.65;100.00;94856.69;5065325;28;20051;-71
2020/12/07 05:46:09;;;;;;;30.15;16.92;;;;;;;5.64;100.00;94847.38;5080312;28;20098;-70
2020/12/07 05:48:36;;;;;;;27.42;14.68;;;;;;;5.65;100.00;94843.78;5074800;28;20051;-70
2020/12/07 05:51:04;;;;;;;34.08;17.02;;;;;;;5.63;100.00;94845.78;5067435;28;20049;-70
2020/12/07 05:53:36;;;;;;;27.90;15.00;;;;;;;5.62;100.00;94846.75;5072085;28;20036;-69
2020/12/07 05:56:04;;;;;;;28.00;15.43;;;;;;;5.57;100.00;94841.41;5072310;28;20036;-71
2020/12/07 05:58:49;;;;;;;45.65;27.67;;;;;;;5.58;100.00;94842.97;5075977;28;20153;-72
2020/12/07 06:01:19;;;;;;;45.00;26.23;;;;;;;5.62;100.00;94849.34;5080076;28;20036;-71
2020/12/07 06:03:46;;;;;;;38.20;17.67;;;;;;;5.59;100.00;94839.41;5082705;28;20466;-71
2020/12/07 06:06:14;;;;;;;43.42;23.50;;;;;;;5.64;100.00;94847.38;5075469;28;20451;-71
2020/12/07 06:08:41;;;;;;;32.05;19.33;;;;;;;5.64;100.00;94852.53;5071268;28;20048;-71
2020/12/07 06:11:10;;;;;;;32.88;17.25;;;;;;;5.62;100.00;94854.50;5080505;28;20075;-71
2020/12/07 06:13:38;;;;;;;35.72;16.95;;;;;;;5.60;100.00;94859.91;5080030;28;20032;-71
2020/12/07 06:16:06;;;;;;;27.83;14.80;;;;;;;5.58;100.00;94858.50;5072216;28;20047;-71
2020/12/07 06:18:40;;;;;;;30.85;16.55;;;;;;;5.58;100.00;94848.16;5070349;28;20044;-71
2020/12/07 06:21:12;;;;;;;29.70;17.00;;;;;;;5.53;100.00;94836.63;5071254;28;20055;-71
2020/12/07 06:23:43;;;;;;;29.10;15.82;;;;;;;5.59;100.00;94834.25;5077186;28;20044;-71
2020/12/07 06:26:12;;;;;;;32.38;15.88;;;;;;;5.54;100.00;94825.28;5076941;28;20120;-70
2020/12/07 06:28:40;;;;;;;32.13;16.25;;;;;;;5.59;100.00;94829.09;5065033;28;20048;-71
2020/12/07 06:31:18;;;;;;;26.63;13.93;;;;;;;5.62;100.00;94836.41;5066462;28;20042;-71
2020/12/07 06:33:50;;;;;;;32.70;16.05;;;;;;;5.61;100.00;94832.25;5082003;28;20043;-71
2020/12/07 06:36:24;;;;;;;27.85;15.85;;;;;;;5.64;100.00;94819.75;5079795;28;20064;-71
2020/12/07 06:38:51;;;;;;;33.60;16.70;;;;;;;5.61;100.00;94827.88;5064763;28;20052;-71
2020/12/07 06:41:45;;;;;;;37.60;21.10;;;;;;;5.61;100.00;94829.69;5072037;28;20045;-71
2020/12/07 06:44:16;;;;;;;40.40;18.77;;;;;;;5.60;100.00;94825.50;5066077;28;20406;-71
2020/12/07 06:47:14;;;;;;;37.88;18.27;;;;;;;5.61;100.00;94821.94;5080091;28;20497;-71
2020/12/07 06:52:46;;;;;;;38.50;19.30;;;;;;;5.50;100.00;94821.53;5081099;28;20047;-70
2020/12/07 06:55:15;;;;;;;33.40;17.48;;;;;;;5.58;100.00;94837.81;5079924;28;20476;-71
2020/12/07 06:57:50;;;;;;;28.77;16.77;;;;;;;5.55;100.00;94834.66;5077576;28;20417;-71
2020/12/07 07:00:16;;;;;;;;;;;;;;;5.58;100.00;94828.28;5078169;28;20093;-71
2020/12/07 07:02:54;;;;;;;33.03;17.33;;;;;;;5.53;100.00;94826.31;5084637;28;19942;-71
2020/12/07 07:05:27;;;;;;;41.45;19.40;;;;;;;5.51;100.00;94822.31;5074805;28;20059;-71
2020/12/07 07:07:54;;;;;;;35.63;20.55;;;;;;;5.52;100.00;94835.03;5064180;28;20082;-71
2020/12/07 07:10:22;;;;;;;35.58;21.80;;;;;;;5.52;100.00;94819.53;5065591;28;20103;-71
2020/12/07 07:12:50;;;;;;;33.88;21.35;;;;;;;5.46;100.00;94820.34;5077647;28;20116;-71
2020/12/07 07:15:19;;;;;;;37.25;18.83;;;;;;;5.45;100.00;94810.19;5066922;28;20101;-71
2020/12/07 07:17:47;;;;;;;29.15;15.88;;;;;;;5.48;100.00;94815.75;5073540;28;20048;-71
2020/12/07 07:20:15;;;;;;;31.98;17.73;;;;;;;5.48;100.00;94815.75;5079729;28;20066;-71
2020/12/07 07:22:44;;;;;;;31.30;16.27;;;;;;;5.51;100.00;94811.97;5073749;28;20037;-71
2020/12/07 07:28:03;;;;;;;33.55;15.90;;;;;;;5.48;100.00;94812.41;5081972;28;20032;-71
2020/12/07 07:30:30;;;;;;;26.45;14.20;;;;;;;5.42;100.00;94802.84;5080783;28;20593;-71
2020/12/07 07:32:57;;;;;;;28.75;15.73;;;;;;;5.51;100.00;94817.97;5082791;28;20034;-71
2020/12/07 07:35:28;;;;;;;28.70;16.23;;;;;;;5.53;100.00;94815.97;5075002;28;20127;-71
2020/12/07 07:37:55;;;;;;;27.02;14.80;;;;;;;5.52;100.00;94814.38;5083177;28;20043;-71
2020/12/07 07:40:28;;;;;;;23.17;13.00;;;;;;;5.55;100.00;94813.97;5078417;28;20041;-71
2020/12/07 07:42:58;;;;;;;19.45;12.82;;;;;;;5.51;100.00;94817.97;5084813;28;20063;-70
2020/12/07 07:45:31;;;;;;;23.48;13.45;;;;;;;5.55;100.00;94818.34;5072198;28;20127;-71
2020/12/07 08:18:03;;;;;;;81.55;26.75;;;;;;;5.39;100.00;94804.03;5078101;28;20098;-70
2020/12/07 08:20:37;;;;;;;52.13;20.75;;;;;;;5.31;100.00;94792.13;5068386;28;20071;-70
2020/12/07 08:23:06;;;;;;;86.57;31.60;;;;;;;5.38;100.00;94807.59;5077522;28;20052;-70
2020/12/07 08:25:41;;;;;;;68.45;24.98;;;;;;;5.39;100.00;94806.63;5081833;28;20067;-71
2020/12/07 08:28:28;;;;;;;75.25;26.50;;;;;;;5.40;100.00;94805.63;5082647;28;20036;-71
2020/12/07 08:31:07;;;;;;;94.75;30.63;;;;;;;5.42;100.00;94818.34;5080947;28;20037;-70
2020/12/07 08:33:41;;;;;;;82.57;29.77;;;;;;;5.40;100.00;94815.94;5073731;28;20121;-69
2020/12/07 08:36:09;;;;;;;62.38;23.15;;;;;;;5.46;100.00;94819.56;5079254;28;20043;-70
2020/12/07 08:38:38;;;;;;;41.10;18.80;;;;;;;5.42;100.00;94808.00;5082991;28;20387;-70
2020/12/07 08:41:19;;;;;;;35.92;17.23;;;;;;;5.46;100.00;94809.22;5084070;28;20090;-69
2020/12/07 08:43:54;;;;;;;44.10;19.17;;;;;;;5.49;100.00;94804.44;5080748;28;20032;-70
2020/12/07 08:46:26;;;;;;;39.30;19.25;;;;;;;5.47;100.00;94798.66;5083759;28;20044;-69
2020/12/07 08:48:53;;;;;;;56.75;21.95;;;;;;;5.47;100.00;94801.25;5080555;28;20047;-69
2020/12/07 08:51:21;;;;;;;69.20;23.27;;;;;;;5.49;100.00;94795.88;5087319;28;20057;-70
2020/12/07 08:53:48;;;;;;;81.93;30.13;;;;;;;5.53;100.00;94810.81;5083775;28;20036;-69
2020/12/07 08:56:15;;;;;;;69.00;26.60;;;;;;;5.45;100.00;94792.91;5083114;28;20134;-69
2020/12/07 08:58:41;;;;;;;100.53;31.58;;;;;;;5.49;100.00;94796.69;5075159;28;20126;-68
2020/12/07 09:01:09;;;;;;;84.30;28.90;;;;;;;5.50;100.00;94811.19;5080927;28;20032;-70
2020/12/07 09:03:36;;;;;;;136.73;39.03;;;;;;;5.50;100.00;94798.28;5079868;28;20478;-68
2020/12/07 09:06:04;;;;;;;98.47;30.55;;;;;;;5.51;100.00;94812.78;5080566;28;20416;-68
2020/12/07 09:08:32;;;;;;;56.33;21.35;;;;;;;5.48;100.00;94800.25;5073714;28;20101;-68
2020/12/07 09:10:59;;;;;;;64.38;23.25;;;;;;;5.50;100.00;94806.03;5074313;28;20045;-70
2020/12/07 09:13:26;;;;;;;118.35;38.58;;;;;;;5.39;100.00;94788.56;5080780;28;20517;-69
2020/12/07 09:15:53;;;;;;;50.97;21.23;;;;;;;5.47;100.00;94785.75;5078961;28;20124;-69
2020/12/07 09:18:20;;;;;;;29.63;13.88;;;;;;;5.42;100.00;94772.66;5079881;28;20185;-69
2020/12/07 09:20:47;;;;;;;55.33;24.23;;;;;;;5.29;100.00;94752.00;5081565;28;20577;-70
2020/12/07 09:23:15;;;;;;;50.08;22.23;;;;;;;5.48;100.00;94771.84;5075617;28;20037;-68
2020/12/07 09:25:41;;;;;;;46.53;22.85;;;;;;;5.42;100.00;94762.34;5083005;28;20456;-68
2020/12/07 09:28:08;;;;;;;34.00;15.93;;;;;;;5.40;100.00;94759.13;5078003;28;20760;-70
2020/12/07 09:30:37;;;;;;;27.17;14.90;;;;;;;5.51;100.00;94766.28;5070266;28;20484;-69
2020/12/07 09:33:04;;;;;;;45.78;26.38;;;;;;;5.54;100.00;94765.88;5074107;28;20119;-70
2020/12/07 09:35:31;;;;;;;35.88;17.55;;;;;;;5.54;100.00;94760.69;5076296;28;20044;-70
2020/12/07 09:37:57;;;;;;;33.38;15.45;;;;;;;5.62;100.00;94761.50;5079449;28;20071;-70
2020/12/07 09:40:24;;;;;;;37.60;16.95;;;;;;;5.62;100.00;94766.66;5074102;28;20143;-70
2020/12/07 09:42:50;;;;;;;24.33;12.50;;;;;;;5.61;100.00;94757.34;5080831;28;20050;-70
2020/12/07 09:45:20;;;;;;;24.08;15.52;;;;;;;5.61;100.00;94765.88;5075041;28;20470;-68
2020/12/07 09:47:46;;;;;;;43.70;23.23;;;;;;;5.60;100.00;94764.28;5070315;28;20505;-70
2020/12/07 09:50:13;;;;;;;24.00;14.35;;;;;;;5.62;100.00;94761.50;5082284;28;20041;-70
2020/12/07 09:52:40;;;;;;;27.15;15.25;;;;;;;5.58;100.00;94752.56;5079572;28;20046;-68
2020/12/07 09:55:07;;;;;;;20.88;11.88;;;;;;;5.49;100.00;94732.13;5077158;28;20128;-68
2020/12/07 09:57:33;;;;;;;24.92;11.50;;;;;;;5.51;100.00;94740.47;5079851;28;20148;-67
2020/12/07 09:59:59;;;;;;;31.02;16.70;;;;;;;5.49;100.00;94741.63;5081793;28;20036;-69
2020/12/07 10:02:26;;;;;;;53.22;24.60;;;;;;;5.52;100.00;94731.69;5082248;28;20040;-69
2020/12/07 10:04:53;;;;;;;34.20;17.58;;;;;;;5.49;100.00;94742.44;5075925;28;20044;-70
2020/12/07 10:07:19;;;;;;;41.97;18.98;;;;;;;5.50;100.00;94728.53;5080299;28;20048;-68
2020/12/07 10:09:45;;;;;;;43.92;22.77;;;;;;;5.47;100.00;94734.09;5072611;28;20037;-70
2020/12/07 10:12:12;;;;;;;42.25;22.23;;;;;;;5.47;100.00;94728.13;5074655;28;20040;-69
2020/12/07 10:14:38;;;;;;;49.72;22.00;;;;;;;5.49;100.00;94721.78;5078060;28;20119;-70
2020/12/07 10:17:06;;;;;;;74.10;31.33;;;;;;;5.44;100.00;94708.69;5077205;28;20063;-69
2020/12/07 10:19:32;;;;;;;74.25;27.77;;;;;;;5.46;100.00;94711.84;5078937;28;20087;-70
2020/12/07 10:22:03;;;;;;;76.75;28.88;;;;;;;5.50;100.00;94722.56;5069525;28;20052;-70
2020/12/07 10:24:30;;;;;;;84.68;28.77;;;;;;;5.41;100.00;94697.94;5070024;28;20040;-68
2020/12/07 10:26:57;;;;;;;88.88;29.48;;;;;;;5.46;100.00;94721.41;5077421;28;20068;-70
2020/12/07 10:29:23;;;;;;;58.00;24.15;;;;;;;5.49;100.00;94706.28;5081714;28;20047;-70
2020/12/07 10:31:50;;;;;;;50.53;23.92;;;;;;;5.43;100.00;94701.13;5074344;28;20060;-70
2020/12/07 10:34:16;;;;;;;47.67;22.08;;;;;;;5.44;100.00;94698.34;5073070;28;20117;-69
2020/12/07 10:36:46;;;;;;;28.65;14.75;;;;;;;5.40;100.00;94691.97;5079391;28;20072;-70
2020/12/07 10:39:13;;;;;;;56.45;26.65;;;;;;;5.40;100.00;94697.13;5074568;28;20532;-70
2020/12/07 10:41:40;;;;;;;45.10;22.50;;;;;;;5.41;100.00;94683.25;5080910;28;20040;-70
2020/12/07 10:44:07;;;;;;;42.90;22.63;;;;;;;5.40;100.00;94671.31;5071851;28;20463;-70
2020/12/07 10:46:37;;;;;;;39.33;20.00;;;;;;;5.41;100.00;94670.31;5083454;28;21731;-70
2020/12/07 10:49:07;;;;;;;37.58;18.05;;;;;;;5.45;100.00;94674.09;5082686;28;20043;-69
2020/12/07 10:51:34;;;;;;;28.85;17.77;;;;;;;5.43;100.00;94670.91;5075957;28;20067;-70
2020/12/07 10:54:02;;;;;;;31.65;16.45;;;;;;;5.46;100.00;94678.28;5069160;28;20417;-70
2020/12/07 10:56:29;;;;;;;20.95;12.65;;;;;;;5.49;100.00;94675.28;5072963;28;20049;-69
2020/12/07 10:58:55;;;;;;;24.42;14.27;;;;;;;5.46;100.00;94673.09;5063718;28;20052;-70
2020/12/07 11:01:21;;;;;;;24.92;13.82;;;;;;;5.47;100.00;94672.09;5081581;28;20039;-69
2020/12/07 11:03:48;;;;;;;45.05;22.17;;;;;;;5.51;100.00;94662.16;5073303;28;20075;-69
2020/12/07 11:06:21;;;;;;;37.25;19.98;;;;;;;5.51;100.00;94655.22;5075253;28;20106;-69
2020/12/07 11:11:14;;;;;;;29.38;14.98;;;;;;;5.49;100.00;94633.97;5074942;28;20078;-69
2020/12/07 11:13:41;;;;;;;25.27;14.18;;;;;;;5.55;100.00;94648.63;5074497;28;20075;-70
2020/12/07 11:16:13;;;;;;;18.90;11.55;;;;;;;5.51;100.00;94637.13;5068443;28;20533;-69
2020/12/07 11:18:40;;;;;;;43.38;23.08;;;;;;;5.67;100.00;94635.06;5075380;28;20044;-71
2020/12/07 11:21:13;;;;;;;23.75;13.80;;;;;;;5.64;100.00;94635.50;5076030;28;20514;-69
2020/12/07 11:23:42;;;;;;;21.80;12.10;;;;;;;5.62;100.00;94633.13;5077324;28;20501;-70
2020/12/07 11:26:09;;;;;;;22.00;13.00;;;;;;;5.57;100.00;94629.56;5071578;28;20509;-70
2020/12/07 11:28:37;;;;;;;19.63;10.65;;;;;;;5.62;100.00;94647.81;5086265;28;20046;-68
2020/12/07 11:31:03;;;;;;;15.77;10.10;;;;;;;5.60;100.00;94645.44;5077405;28;20032;-69
2020/12/07 11:33:30;;;;;;;25.80;14.05;;;;;;;5.60;100.00;94647.22;5078506;28;20054;-70
2020/12/07 11:36:10;;;;;;;18.92;12.05;;;;;;;5.57;100.00;94645.06;5077714;28;20498;-69
2020/12/07 11:38:44;;;;;;;20.00;12.05;;;;;;;5.62;100.00;94632.31;5077601;28;20044;-69
2020/12/07 11:44:20;;;;;;;20.50;11.52;;;;;;;5.59;100.00;94624.97;5074528;28;20039;-69
2020/12/07 11:46:35;;;;;;;20.55;13.13;;;;;;;5.63;100.00;94619.19;5087072;28;20056;-69
2020/12/07 11:49:02;;;;;;;18.75;11.63;;;;;;;5.63;100.00;94605.47;5080910;28;20497;-68
2020/12/07 11:51:28;;;;;;;12.55;7.88;;;;;;;5.67;100.00;94619.56;5083804;28;20132;-69
2020/12/07 11:53:55;;;;;;;16.80;10.00;;;;;;;5.65;100.00;94612.00;5077857;28;20044;-69
2020/12/07 11:56:30;;;;;;;21.10;10.13;;;;;;;5.72;100.00;94622.34;5079538;28;20375;-69
2020/12/07 11:58:57;;;;;;;18.77;10.55;;;;;;;5.67;100.00;94599.72;5083220;28;20478;-69
2020/12/07 12:01:23;;;;;;;13.50;8.85;;;;;;;5.73;100.00;94621.34;5071431;28;20098;-69
2020/12/07 12:03:51;;;;;;;14.57;8.60;;;;;;;5.76;100.00;94608.00;5078303;28;20036;-69
2020/12/07 12:06:34;;;;;;;12.65;8.13;;;;;;;5.74;100.00;94615.16;5076551;28;20044;-69